Time,TemperatureF,DewpointF,PressureIn,WindDirection,WindDirectionDegrees,WindSpeedMPH,WindSpeedGustMPH,Humidity,HourlyPrecipIn,Conditions,Clouds,dailyrainin,SoftwareType,DateUTC
2013-05-24 00:10:00,47.9,34.0,29.77,NNW,342,0.0,10.0,60,0.00,,,0.00,weatherlink.com 1.10,2013-05-24 06:10:00,
2013-05-24 00:25:00,47.2,34.0,29.79,NW,311,1.0,4.0,61,0.00,,,0.00,weatherlink.com 1.10,2013-05-24 06:25:00,
2013-05-24 00:40:00,47.7,33.0,29.80,NNE,28,6.0,8.0,58,0.00,,,0.00,weatherlink.com 1.10,2013-05-24 06:40:00,
2013-05-24 01:10:00,48.2,33.0,29.79,NE,50,5.0,7.0,57,0.00,,,0.00,weatherlink.com 1.10,2013-05-24 07:10:00,
2013-05-24 01:25:00,47.8,33.0,29.79,NE,34,6.0,8.0,57,0.00,,,0.00,weatherlink.com 1.10,2013-05-24 07:25:00,
2013-05-24 01:40:00,48.5,33.0,29.79,NNE,23,4.0,9.0,55,0.00,,,0.00,weatherlink.com 1.10,2013-05-24 07:40:00,
2013-05-24 01:55:00,46.8,35.0,29.79,NW,314,3.0,4.0,63,0.00,,,0.00,weatherlink.com 1.10,2013-05-24 07:55:00,
2013-05-24 02:10:00,46.3,35.0,29.79,NW,313,0.0,6.0,64,0.00,,,0.00,weatherlink.com 1.10,2013-05-24 08:10:00,
2013-05-24 02:25:00,45.7,35.0,29.80,NW,321,1.0,3.0,66,0.00,,,0.00,weatherlink.com 1.10,2013-05-24 08:25:00,
2013-05-24 02:40:00,45.6,35.0,29.80,North,10,3.0,4.0,66,0.00,,,0.00,weatherlink.com 1.10,2013-05-24 08:40:00,
2013-05-24 02:55:00,45.5,35.0,29.80,North,11,4.0,7.0,66,0.00,,,0.00,weatherlink.com 1.10,2013-05-24 08:55:00,
2013-05-24 03:10:00,44.7,35.0,29.80,North,360,0.0,3.0,69,0.00,,,0.00,weatherlink.com 1.10,2013-05-24 09:10:00,
2013-05-24 03:25:00,44.1,35.0,29.80,ESE,111,3.0,3.0,70,0.00,,,0.00,weatherlink.com 1.10,2013-05-24 09:25:00,
2013-05-24 03:40:00,44.3,36.0,29.80,ESE,105,0.0,4.0,72,0.00,,,0.00,weatherlink.com 1.10,2013-05-24 09:40:00,
2013-05-24 03:55:00,43.4,36.0,29.80,ESE,105,0.0,2.0,74,0.00,,,0.00,weatherlink.com 1.10,2013-05-24 09:55:00,
2013-05-24 04:10:00,42.9,36.0,29.80,East,88,1.0,1.0,77,0.00,,,0.00,weatherlink.com 1.10,2013-05-24 10:10:00,
2013-05-24 04:25:00,42.0,36.0,29.80,North,355,0.0,2.0,80,0.00,,,0.00,weatherlink.com 1.10,2013-05-24 10:25:00,
2013-05-24 04:40:00,42.1,36.0,29.80,North,5,0.0,1.0,80,0.00,,,0.00,weatherlink.com 1.10,2013-05-24 10:40:00,
2013-05-24 04:55:00,42.3,35.0,29.81,North,5,1.0,2.0,75,0.00,,,0.00,weatherlink.com 1.10,2013-05-24 10:55:00,
2013-05-24 05:10:00,41.2,36.0,29.80,ENE,71,0.0,4.0,80,0.00,,,0.00,weatherlink.com 1.10,2013-05-24 11:10:00,
2013-05-24 05:25:00,39.9,35.0,29.80,ENE,71,2.0,3.0,81,0.00,,,0.00,weatherlink.com 1.10,2013-05-24 11:25:00,
2013-05-24 05:40:00,39.1,34.0,29.81,ENE,71,1.0,2.0,82,0.00,,,0.00,weatherlink.com 1.10,2013-05-24 11:40:00,
2013-05-24 05:55:00,38.4,34.0,29.80,ENE,71,0.0,0.0,84,0.00,,,0.00,weatherlink.com 1.10,2013-05-24 11:55:00,
2013-05-24 06:11:00,37.6,34.0,29.82,ENE,71,0.0,0.0,85,0.00,,,0.00,weatherlink.com 1.10,2013-05-24 12:11:00,
2013-05-24 06:26:00,37.2,34.0,29.81,ENE,71,0.0,1.0,88,0.00,,,0.00,weatherlink.com 1.10,2013-05-24 12:26:00,
2013-05-24 06:41:00,36.4,34.0,29.82,ENE,71,0.0,2.0,89,0.00,,,0.00,weatherlink.com 1.10,2013-05-24 12:41:00,
2013-05-24 06:56:00,37.2,35.0,29.82,ENE,71,2.0,2.0,91,0.00,,,0.00,weatherlink.com 1.10,2013-05-24 12:56:00,
2013-05-24 07:11:00,39.3,36.0,29.83,ENE,71,0.0,2.0,88,0.00,,,0.00,weatherlink.com 1.10,2013-05-24 13:11:00,
2013-05-24 07:26:00,40.4,36.0,29.82,ENE,71,0.0,0.0,85,0.00,,,0.00,weatherlink.com 1.10,2013-05-24 13:26:00,
2013-05-24 07:41:00,41.5,37.0,29.82,ENE,71,0.0,0.0,84,0.00,,,0.00,weatherlink.com 1.10,2013-05-24 13:41:00,
2013-05-24 07:56:00,43.5,37.0,29.82,ENE,71,0.0,1.0,79,0.00,,,0.00,weatherlink.com 1.10,2013-05-24 13:56:00,
2013-05-24 08:11:00,45.6,37.0,29.82,ENE,71,0.0,0.0,71,0.00,,,0.00,weatherlink.com 1.10,2013-05-24 14:11:00,
2013-05-24 08:26:00,46.4,37.0,29.82,NW,304,0.0,4.0,71,0.00,,,0.00,weatherlink.com 1.10,2013-05-24 14:26:00,
2013-05-24 08:41:00,47.4,38.0,29.81,NW,304,0.0,2.0,70,0.00,,,0.00,weatherlink.com 1.10,2013-05-24 14:41:00,
2013-05-24 08:56:00,48.6,36.0,29.81,South,175,1.0,7.0,63,0.00,,,0.00,weatherlink.com 1.10,2013-05-24 14:56:00,
2013-05-24 09:11:00,49.3,35.0,29.81,SSW,195,2.0,8.0,59,0.00,,,0.00,weatherlink.com 1.10,2013-05-24 15:11:00,
2013-05-24 09:26:00,50.0,36.0,29.80,SE,141,1.0,6.0,59,0.00,,,0.00,weatherlink.com 1.10,2013-05-24 15:26:00,
2013-05-24 09:41:00,51.7,37.0,29.80,SW,221,2.0,5.0,58,0.00,,,0.00,weatherlink.com 1.10,2013-05-24 15:41:00,
2013-05-24 09:56:00,52.7,36.0,29.80,West,260,5.0,7.0,53,0.00,,,0.00,weatherlink.com 1.10,2013-05-24 15:56:00,
2013-05-24 10:11:00,53.0,36.0,29.79,SSE,165,1.0,10.0,53,0.00,,,0.00,weatherlink.com 1.10,2013-05-24 16:11:00,
2013-05-24 10:26:00,54.1,35.0,29.78,West,263,5.0,10.0,48,0.00,,,0.00,weatherlink.com 1.10,2013-05-24 16:26:00,
2013-05-24 10:42:00,55.5,36.0,29.77,SE,134,5.0,13.0,48,0.00,,,0.00,weatherlink.com 1.10,2013-05-24 16:42:00,
2013-05-24 10:57:00,55.6,35.0,29.76,SW,221,5.0,8.0,46,0.00,,,0.00,weatherlink.com 1.10,2013-05-24 16:57:00,
2013-05-24 11:12:00,56.1,35.0,29.76,SSW,198,6.0,8.0,45,0.00,,,0.00,weatherlink.com 1.10,2013-05-24 17:12:00,
2013-05-24 11:27:00,55.3,31.0,29.78,SW,227,10.0,23.0,39,0.00,,,0.00,weatherlink.com 1.10,2013-05-24 17:27:00,
2013-05-24 11:42:00,53.3,35.0,29.77,NW,317,10.0,15.0,50,0.00,,,0.00,weatherlink.com 1.10,2013-05-24 17:42:00,
2013-05-24 11:57:00,53.4,36.0,29.76,NW,321,8.0,16.0,52,0.00,,,0.00,weatherlink.com 1.10,2013-05-24 17:57:00,
2013-05-24 12:12:00,53.5,36.0,29.75,NNW,344,3.0,11.0,52,0.00,,,0.00,weatherlink.com 1.10,2013-05-24 18:12:00,
2013-05-24 12:27:00,56.1,36.0,29.74,NNW,331,8.0,11.0,47,0.00,,,0.00,weatherlink.com 1.10,2013-05-24 18:27:00,
2013-05-24 12:42:00,57.0,34.0,29.74,NW,324,5.0,13.0,42,0.00,,,0.00,weatherlink.com 1.10,2013-05-24 18:42:00,
2013-05-24 12:57:00,59.2,34.0,29.73,NW,313,8.0,11.0,39,0.00,,,0.00,weatherlink.com 1.10,2013-05-24 18:57:00,
2013-05-24 13:12:00,58.3,33.0,29.73,NNW,336,3.0,10.0,38,0.00,,,0.00,weatherlink.com 1.10,2013-05-24 19:12:00,
2013-05-24 13:27:00,60.2,33.0,29.73,NW,306,6.0,6.0,36,0.00,,,0.00,weatherlink.com 1.10,2013-05-24 19:27:00,
2013-05-24 13:42:00,60.6,32.0,29.73,WNW,283,1.0,8.0,34,0.00,,,0.00,weatherlink.com 1.10,2013-05-24 19:42:00,
2013-05-24 13:57:00,60.3,33.0,29.73,West,271,3.0,8.0,36,0.00,,,0.00,weatherlink.com 1.10,2013-05-24 19:57:00,
2013-05-24 14:12:00,60.3,32.0,29.73,South,183,5.0,10.0,34,0.00,,,0.00,weatherlink.com 1.10,2013-05-24 20:12:00,
2013-05-24 14:27:00,60.9,31.0,29.73,SE,127,5.0,15.0,32,0.00,,,0.00,weatherlink.com 1.10,2013-05-24 20:27:00,
2013-05-24 14:42:00,61.1,30.0,29.72,South,191,12.0,16.0,31,0.00,,,0.00,weatherlink.com 1.10,2013-05-24 20:42:00,
2013-05-24 14:57:00,60.6,30.0,29.72,SSW,207,7.0,13.0,32,0.00,,,0.00,weatherlink.com 1.10,2013-05-24 20:57:00,
2013-05-24 15:12:00,60.8,31.0,29.72,South,178,3.0,14.0,33,0.00,,,0.00,weatherlink.com 1.10,2013-05-24 21:12:00,
2013-05-24 15:27:00,60.7,30.0,29.72,South,184,6.0,15.0,32,0.00,,,0.00,weatherlink.com 1.10,2013-05-24 21:27:00,
2013-05-24 15:42:00,60.7,31.0,29.73,South,182,5.0,10.0,33,0.00,,,0.00,weatherlink.com 1.10,2013-05-24 21:42:00,
2013-05-24 15:57:00,60.4,32.0,29.74,SW,229,7.0,19.0,34,0.00,,,0.00,weatherlink.com 1.10,2013-05-24 21:57:00,
2013-05-24 16:12:00,60.2,32.0,29.75,WSW,247,10.0,16.0,34,0.00,,,0.00,weatherlink.com 1.10,2013-05-24 22:12:00,
2013-05-24 16:27:00,59.3,35.0,29.75,NNW,327,16.0,33.0,41,0.00,,,0.00,weatherlink.com 1.10,2013-05-24 22:27:00,
2013-05-24 16:57:00,51.1,37.0,29.77,NNW,336,14.0,23.0,59,0.00,,,0.00,weatherlink.com 1.10,2013-05-24 22:57:00,
2013-05-24 17:12:00,51.2,37.0,29.78,North,355,12.0,20.0,58,0.00,,,0.00,weatherlink.com 1.10,2013-05-24 23:12:00,
2013-05-24 17:27:00,51.3,36.0,29.79,NNE,25,8.0,19.0,56,0.00,,,0.00,weatherlink.com 1.10,2013-05-24 23:27:00,
2013-05-24 17:42:00,52.3,35.0,29.80,NE,43,5.0,14.0,53,0.00,,,0.00,weatherlink.com 1.10,2013-05-24 23:42:00,
2013-05-24 17:57:00,52.7,35.0,29.80,ENE,57,8.0,13.0,51,0.00,,,0.00,weatherlink.com 1.10,2013-05-24 23:57:00,
2013-05-24 18:12:00,52.9,35.0,29.80,NE,44,10.0,15.0,51,0.00,,,0.00,weatherlink.com 1.10,2013-05-25 00:12:00,
2013-05-24 18:27:00,53.4,34.0,29.81,NNE,19,8.0,14.0,49,0.00,,,0.00,weatherlink.com 1.10,2013-05-25 00:27:00,
2013-05-24 18:42:00,54.1,35.0,29.81,NNE,21,10.0,14.0,48,0.00,,,0.00,weatherlink.com 1.10,2013-05-25 00:42:00,
2013-05-24 18:57:00,54.3,34.0,29.81,NE,38,7.0,12.0,46,0.00,,,0.00,weatherlink.com 1.10,2013-05-25 00:57:00,
2013-05-24 19:12:00,54.8,34.0,29.81,WNW,296,6.0,10.0,46,0.00,,,0.00,weatherlink.com 1.10,2013-05-25 01:12:00,
2013-05-24 19:27:00,54.4,33.0,29.81,West,268,4.0,14.0,45,0.00,,,0.00,weatherlink.com 1.10,2013-05-25 01:27:00,
2013-05-24 19:42:00,54.1,33.0,29.82,NW,325,7.0,16.0,45,0.00,,,0.00,weatherlink.com 1.10,2013-05-25 01:42:00,
2013-05-24 19:57:00,53.5,34.0,29.83,NW,312,11.0,23.0,47,0.00,,,0.00,weatherlink.com 1.10,2013-05-25 01:57:00,
2013-05-24 20:12:00,53.0,33.0,29.84,NW,317,3.0,8.0,47,0.00,,,0.00,weatherlink.com 1.10,2013-05-25 02:12:00,
2013-05-24 20:27:00,51.8,34.0,29.85,North,5,9.0,12.0,51,0.00,,,0.00,weatherlink.com 1.10,2013-05-25 02:27:00,
2013-05-24 20:42:00,51.3,33.0,29.85,NNW,336,8.0,15.0,50,0.00,,,0.00,weatherlink.com 1.10,2013-05-25 02:42:00,
2013-05-24 20:57:00,50.7,33.0,29.86,NW,306,7.0,17.0,52,0.00,,,0.00,weatherlink.com 1.10,2013-05-25 02:57:00,
2013-05-24 21:12:00,50.5,33.0,29.86,WNW,288,7.0,10.0,51,0.00,,,0.00,weatherlink.com 1.10,2013-05-25 03:12:00,
2013-05-24 21:27:00,50.8,31.0,29.87,NNW,333,8.0,22.0,47,0.00,,,0.00,weatherlink.com 1.10,2013-05-25 03:27:00,
2013-05-24 21:42:00,50.6,31.0,29.88,WNW,292,9.0,13.0,47,0.00,,,0.00,weatherlink.com 1.10,2013-05-25 03:42:00,
2013-05-24 21:57:00,50.6,32.0,29.88,NNW,333,0.0,6.0,49,0.00,,,0.00,weatherlink.com 1.10,2013-05-25 03:57:00,
2013-05-24 22:12:00,50.1,33.0,29.88,North,11,0.0,2.0,53,0.00,,,0.00,weatherlink.com 1.10,2013-05-25 04:12:00,
2013-05-24 22:27:00,49.3,33.0,29.89,NNW,348,2.0,2.0,54,0.00,,,0.00,weatherlink.com 1.10,2013-05-25 04:27:00,
2013-05-24 22:43:00,48.7,34.0,29.90,NNE,33,4.0,5.0,57,0.00,,,0.00,weatherlink.com 1.10,2013-05-25 04:43:00,
2013-05-24 22:58:00,47.4,34.0,29.89,NE,38,6.0,9.0,59,0.00,,,0.00,weatherlink.com 1.10,2013-05-25 04:58:00,
2013-05-24 23:13:00,46.6,34.0,29.89,NE,44,6.0,11.0,61,0.00,,,0.00,weatherlink.com 1.10,2013-05-25 05:13:00,
2013-05-24 23:28:00,45.9,34.0,29.89,NE,44,5.0,9.0,63,0.00,,,0.00,weatherlink.com 1.10,2013-05-25 05:28:00,
2013-05-24 23:43:00,45.2,34.0,29.88,NE,42,5.0,9.0,65,0.00,,,0.00,weatherlink.com 1.10,2013-05-25 05:43:00,
2013-05-24 23:58:00,44.4,34.0,29.88,NE,56,7.0,8.0,66,0.00,,,0.00,weatherlink.com 1.10,2013-05-25 05:58:00,